Time;durP1;ratioP1;P1;durP2;ratioP2;P2;SDS_P1;SDS_P2;PMS_P1;PMS_P2;Temp;Humidity;BMP_temperature;BMP_pressure;BME280_temperature;BME280_humidity;BME280_pressure;Samples;Min_cycle;Max_cycle;Signal;HPM_P1;HPM_P2
2022/10/19 00:00:25;;;;;;;4.25;2.97;;;10.10;99.90;;;;;;5075301;28;20410;-41
2022/10/19 00:02:50;;;;;;;9.13;3.40;;;10.10;99.90;;;;;;5074109;28;20543;-42
2022/10/19 00:05:16;;;;;;;6.05;3.55;;;10.00;99.90;;;;;;5075404;28;20024;-41
2022/10/19 00:07:42;;;;;;;5.40;2.85;;;10.00;99.90;;;;;;5075800;28;20033;-42
2022/10/19 00:10:08;;;;;;;6.75;3.00;;;9.90;99.90;;;;;;5074021;28;20491;-40
2022/10/19 00:12:33;;;;;;;4.35;3.45;;;9.90;99.90;;;;;;5075050;28;20085;-41
2022/10/19 00:14:59;;;;;;;6.30;3.28;;;9.90;99.90;;;;;;5074686;28;20512;-43
2022/10/19 00:17:25;;;;;;;4.45;3.00;;;9.80;99.90;;;;;;5075575;28;20029;-41
2022/10/19 00:19:50;;;;;;;4.70;2.97;;;9.80;99.90;;;;;;5073990;28;20480;-40
2022/10/19 00:22:16;;;;;;;4.25;2.95;;;9.70;99.90;;;;;;5075334;28;20503;-41
2022/10/19 00:24:41;;;;;;;3.17;2.65;;;9.70;99.90;;;;;;5074509;28;20028;-43
2022/10/19 00:27:07;;;;;;;3.30;3.00;;;9.70;99.90;;;;;;5075037;28;20025;-39
2022/10/19 00:29:33;;;;;;;4.35;2.72;;;9.70;99.90;;;;;;5070184;28;20489;-42
2022/10/19 00:31:58;;;;;;;5.90;2.70;;;9.60;99.90;;;;;;5069996;28;20032;-41
2022/10/19 00:34:24;;;;;;;6.60;2.88;;;9.60;99.90;;;;;;5074512;28;20433;-42
2022/10/19 00:36:49;;;;;;;6.40;3.70;;;9.60;99.90;;;;;;5075025;28;20111;-42
2022/10/19 00:39:17;;;;;;;4.82;3.25;;;9.60;99.90;;;;;;5072463;28;20025;-55
2022/10/19 00:41:44;;;;;;;5.37;3.83;;;9.60;99.90;;;;;;5073654;28;20553;-41
2022/10/19 00:44:12;;;;;;;8.53;3.47;;;9.60;99.90;;;;;;5071805;28;20064;-42
2022/10/19 00:46:40;;;;;;;7.32;3.78;;;9.60;99.90;;;;;;5072503;28;20480;-41
2022/10/19 00:49:25;;;;;;;3.75;2.92;;;9.60;99.90;;;;;;5073233;28;20354;-42
2022/10/19 00:51:56;;;;;;;6.70;3.55;;;9.60;99.90;;;;;;5073121;28;20032;-44
2022/10/19 00:54:22;;;;;;;3.85;3.35;;;9.60;99.90;;;;;;5073819;28;20032;-44
2022/10/19 00:56:51;;;;;;;7.28;3.38;;;9.60;99.90;;;;;;5074104;28;20384;-40
2022/10/19 00:59:19;;;;;;;5.22;3.25;;;9.50;99.90;;;;;;5071854;28;20036;-41
2022/10/19 01:01:46;;;;;;;3.30;3.00;;;9.50;99.90;;;;;;5072462;28;20077;-41
2022/10/19 01:04:12;;;;;;;5.80;3.87;;;9.50;99.90;;;;;;5073578;28;20538;-41
2022/10/19 01:06:39;;;;;;;6.20;3.72;;;9.40;99.90;;;;;;5074609;28;20491;-41
2022/10/19 01:09:06;;;;;;;7.70;3.70;;;9.40;99.90;;;;;;5074551;28;20031;-40
2022/10/19 01:11:56;;;;;;;8.48;4.05;;;9.40;99.90;;;;;;5072360;28;20492;-42
2022/10/19 01:14:22;;;;;;;11.57;4.60;;;9.40;99.90;;;;;;5072453;28;20059;-35
2022/10/19 01:16:53;;;;;;;9.10;4.20;;;9.40;99.90;;;;;;5073662;28;20111;-42
2022/10/19 01:19:25;;;;;;;6.22;3.80;;;9.30;99.90;;;;;;5072447;28;20463;-41
2022/10/19 01:22:02;;;;;;;5.90;3.88;;;9.30;99.90;;;;;;5072898;28;20419;-41
2022/10/19 01:25:08;;;;;;;5.57;4.20;;;9.30;99.90;;;;;;5069945;28;20031;-39
2022/10/19 01:27:51;;;;;;;9.68;4.00;;;9.20;99.90;;;;;;5055162;28;20366;-33
2022/10/19 01:30:33;;;;;;;7.80;4.28;;;9.20;99.90;;;;;;5068220;28;20016;-42
2022/10/19 01:33:11;;;;;;;17.17;5.80;;;9.20;99.90;;;;;;5071852;28;20045;-39
2022/10/19 01:35:43;;;;;;;24.77;8.27;;;9.20;99.90;;;;;;5059687;28;20125;-38
2022/10/19 01:38:30;;;;;;;33.85;11.82;;;9.20;99.90;;;;;;5054158;28;20033;-42
2022/10/19 01:41:18;;;;;;;43.25;13.82;;;9.20;99.90;;;;;;5065831;28;20496;-43
2022/10/19 01:44:02;;;;;;;37.17;11.55;;;9.20;99.90;;;;;;5070126;28;20077;-40
2022/10/19 01:46:39;;;;;;;54.50;16.77;;;9.20;99.90;;;;;;5070931;28;20503;-44
2022/10/19 01:49:19;;;;;;;18.42;7.78;;;9.20;99.90;;;;;;5062372;28;20025;-66
2022/10/19 01:51:55;;;;;;;24.08;8.35;;;9.20;99.90;;;;;;5073815;28;20476;-41
2022/10/19 01:54:22;;;;;;;45.65;14.63;;;9.10;99.90;;;;;;5073741;28;20115;-41
2022/10/19 01:56:50;;;;;;;22.92;9.52;;;9.10;99.90;;;;;;5070248;28;20052;-41
2022/10/19 01:59:18;;;;;;;17.10;7.72;;;9.10;99.90;;;;;;5071387;28;20041;-39
2022/10/19 02:01:46;;;;;;;12.45;6.47;;;9.10;99.90;;;;;;5072053;28;20048;-50
2022/10/19 02:04:17;;;;;;;14.10;6.70;;;9.10;99.90;;;;;;5071956;28;20047;-40
2022/10/19 02:06:43;;;;;;;22.27;8.48;;;9.10;99.90;;;;;;5071191;28;20064;-43
2022/10/19 02:09:09;;;;;;;10.00;5.25;;;9.10;99.90;;;;;;5072537;28;20025;-40
2022/10/19 02:11:36;;;;;;;9.70;4.40;;;9.10;99.90;;;;;;5070490;28;20038;-39
2022/10/19 02:14:10;;;;;;;8.73;4.10;;;9.10;99.90;;;;;;5071758;28;20037;-40
2022/10/19 02:16:46;;;;;;;5.15;3.53;;;9.10;99.90;;;;;;5070074;28;20084;-39
2022/10/19 02:19:14;;;;;;;6.80;3.85;;;9.10;99.90;;;;;;5070550;28;20029;-39
2022/10/19 02:21:40;;;;;;;5.45;3.10;;;9.10;99.90;;;;;;5072722;28;20024;-41
2022/10/19 02:24:05;;;;;;;8.18;3.40;;;9.10;99.90;;;;;;5070687;28;20392;-42
2022/10/19 02:26:31;;;;;;;6.45;3.30;;;9.10;99.90;;;;;;5070520;28;20504;-41
2022/10/19 02:28:58;;;;;;;4.75;2.97;;;9.00;99.90;;;;;;5070631;28;20024;-40
2022/10/19 02:31:24;;;;;;;5.85;3.20;;;9.00;99.90;;;;;;5069699;28;20031;-39
2022/10/19 02:33:50;;;;;;;3.72;3.05;;;9.00;99.90;;;;;;5069875;28;20048;-39
2022/10/19 02:36:17;;;;;;;6.90;2.83;;;8.90;99.90;;;;;;5071334;28;20386;-40
2022/10/19 02:38:43;;;;;;;4.65;3.05;;;8.90;99.90;;;;;;5071250;28;20492;-40
2022/10/19 02:41:11;;;;;;;6.57;2.75;;;8.90;99.90;;;;;;5071409;28;20103;-40
2022/10/19 02:43:40;;;;;;;4.68;3.30;;;8.90;99.90;;;;;;5071379;28;20025;-41
2022/10/19 02:46:35;;;;;;;8.65;3.55;;;8.90;99.90;;;;;;5071562;28;20427;-38
2022/10/19 02:49:08;;;;;;;4.40;3.38;;;8.80;99.90;;;;;;5066107;28;20607;-42
2022/10/19 02:51:39;;;;;;;7.40;3.05;;;8.80;99.90;;;;;;5072151;28;20020;-41
2022/10/19 02:54:07;;;;;;;6.05;2.70;;;8.80;99.90;;;;;;5070260;28;20497;-39
2022/10/19 02:56:34;;;;;;;3.47;2.53;;;8.80;99.90;;;;;;5070866;28;20473;-40
2022/10/19 02:59:00;;;;;;;3.45;2.58;;;8.70;99.90;;;;;;5071610;28;20075;-41
2022/10/19 03:01:25;;;;;;;5.45;2.67;;;8.70;99.90;;;;;;5058524;28;20024;-41
2022/10/19 03:03:51;;;;;;;6.07;3.20;;;8.70;99.90;;;;;;5071100;28;20457;-54
2022/10/19 03:06:17;;;;;;;4.70;3.30;;;8.70;99.90;;;;;;5071974;28;20029;-40
2022/10/19 03:08:43;;;;;;;6.40;3.22;;;8.70;99.90;;;;;;5068998;28;20023;-40
2022/10/19 03:11:08;;;;;;;7.15;2.95;;;8.70;99.90;;;;;;5070306;28;20056;-43
2022/10/19 03:13:34;;;;;;;3.92;2.65;;;8.60;99.90;;;;;;5071706;28;20024;-41
2022/10/19 03:16:10;;;;;;;6.68;3.05;;;8.60;99.90;;;;;;5074802;28;20047;-41
2022/10/19 03:18:36;;;;;;;7.13;3.30;;;8.60;99.90;;;;;;5074966;28;20469;-43
2022/10/19 03:21:10;;;;;;;7.22;3.33;;;8.60;99.90;;;;;;5074272;28;20035;-43
2022/10/19 03:23:37;;;;;;;4.30;2.90;;;8.60;99.90;;;;;;5075525;28;20020;-41
2022/10/19 03:26:03;;;;;;;8.20;3.60;;;8.60;99.90;;;;;;5075963;28;20044;-38
2022/10/19 03:28:30;;;;;;;8.73;3.40;;;8.60;99.90;;;;;;5075546;28;20035;-38
2022/10/19 03:30:55;;;;;;;6.57;3.53;;;8.50;99.90;;;;;;5075012;28;20532;-40
2022/10/19 03:33:22;;;;;;;3.40;2.53;;;8.50;99.90;;;;;;5072028;28;20028;-40
2022/10/19 03:35:47;;;;;;;7.85;2.90;;;8.50;99.90;;;;;;5075618;28;20029;-40
2022/10/19 03:38:13;;;;;;;3.95;2.70;;;8.50;99.90;;;;;;5074202;28;20032;-35
2022/10/19 03:40:39;;;;;;;4.85;2.67;;;8.50;99.90;;;;;;5074440;28;20081;-43
2022/10/19 03:43:05;;;;;;;5.53;3.05;;;8.50;99.90;;;;;;5074164;28;20035;-39
2022/10/19 03:45:30;;;;;;;5.25;2.83;;;8.40;99.90;;;;;;5073703;28;20472;-33
2022/10/19 03:47:56;;;;;;;5.32;3.40;;;8.40;99.90;;;;;;5074100;28;20557;-37
2022/10/19 03:50:22;;;;;;;5.72;2.83;;;8.40;99.90;;;;;;5075017;28;20067;-37
2022/10/19 03:52:48;;;;;;;6.05;3.17;;;8.40;99.90;;;;;;5073742;28;20017;-33
2022/10/19 03:55:14;;;;;;;6.10;2.47;;;8.40;99.90;;;;;;5073819;28;20120;-32
2022/10/19 03:57:41;;;;;;;4.30;2.80;;;8.30;99.90;;;;;;5074072;28;20032;-31
2022/10/19 04:00:08;;;;;;;4.20;2.63;;;8.30;99.90;;;;;;5074671;28;20515;-34
2022/10/19 04:02:36;;;;;;;4.00;2.73;;;8.30;99.90;;;;;;5073043;28;20016;-40
2022/10/19 04:05:02;;;;;;;3.30;2.15;;;8.30;99.90;;;;;;5075204;28;20388;-41
2022/10/19 04:07:28;;;;;;;9.75;3.53;;;8.30;99.90;;;;;;5073326;28;20111;-39
2022/10/19 04:09:53;;;;;;;5.22;2.60;;;8.20;99.90;;;;;;5073642;28;20020;-41
2022/10/19 04:12:19;;;;;;;7.45;2.75;;;8.30;99.90;;;;;;5071642;28;20020;-41
2022/10/19 04:14:44;;;;;;;6.55;2.88;;;8.30;99.90;;;;;;5073726;28;20564;-41
2022/10/19 04:17:10;;;;;;;5.60;2.22;;;8.20;99.90;;;;;;5073647;28;20054;-40
2022/10/19 04:19:36;;;;;;;2.80;2.47;;;8.20;99.90;;;;;;5070836;28;20016;-41
2022/10/19 04:22:01;;;;;;;7.25;2.88;;;8.20;99.90;;;;;;5072539;28;20533;-40
2022/10/19 04:24:27;;;;;;;3.03;2.33;;;8.20;99.90;;;;;;5072796;28;20020;-41
2022/10/19 04:26:54;;;;;;;3.33;2.40;;;8.20;99.90;;;;;;5072904;28;20050;-40
2022/10/19 04:29:22;;;;;;;3.10;2.45;;;8.20;99.90;;;;;;5075021;28;20123;-40
2022/10/19 04:31:49;;;;;;;2.20;2.00;;;8.20;99.90;;;;;;5073054;28;20508;-40
2022/10/19 04:34:15;;;;;;;2.63;1.83;;;8.20;99.90;;;;;;5071364;28;20181;-52
2022/10/19 04:36:41;;;;;;;4.32;2.03;;;8.20;99.90;;;;;;5076177;28;20048;-42
2022/10/19 04:39:07;;;;;;;7.00;3.10;;;8.20;99.90;;;;;;5075478;28;20017;-41
2022/10/19 04:41:34;;;;;;;4.53;2.72;;;8.20;99.90;;;;;;5072775;28;20028;-40
2022/10/19 04:44:01;;;;;;;5.45;2.78;;;8.20;99.90;;;;;;5068324;28;20103;-37
2022/10/19 04:46:28;;;;;;;2.85;2.65;;;8.10;99.90;;;;;;5071612;28;20078;-40
2022/10/19 04:48:55;;;;;;;3.70;2.33;;;8.20;99.90;;;;;;5072815;28;20099;-40
2022/10/19 04:51:23;;;;;;;3.15;2.33;;;8.20;99.90;;;;;;5072916;28;20032;-39
2022/10/19 04:53:49;;;;;;;5.10;2.47;;;8.10;99.90;;;;;;5073723;28;20354;-41
2022/10/19 04:56:20;;;;;;;3.00;2.15;;;8.10;99.90;;;;;;5073281;28;20031;-44
2022/10/19 04:58:46;;;;;;;3.33;2.50;;;8.10;99.90;;;;;;5069080;28;20397;-41
2022/10/19 05:01:18;;;;;;;5.47;2.50;;;8.00;99.90;;;;;;5074182;28;20448;-41
2022/10/19 05:03:44;;;;;;;2.78;2.50;;;8.10;99.90;;;;;;5073031;28;20025;-39
2022/10/19 05:06:11;;;;;;;4.10;2.10;;;8.00;99.90;;;;;;5070296;28;20533;-38
2022/10/19 05:08:37;;;;;;;4.40;2.35;;;8.00;99.90;;;;;;5072357;28;20013;-41
2022/10/19 05:11:13;;;;;;;5.80;2.70;;;8.00;99.90;;;;;;5073665;28;20028;-31
2022/10/19 05:13:39;;;;;;;7.22;2.55;;;8.00;99.90;;;;;;5071854;28;20028;-35
2022/10/19 05:16:07;;;;;;;7.85;2.45;;;8.00;99.90;;;;;;5072087;28;20028;-34
2022/10/19 05:18:33;;;;;;;3.45;2.33;;;8.00;99.90;;;;;;5071665;28;20470;-35
2022/10/19 05:21:04;;;;;;;3.60;2.33;;;8.00;99.90;;;;;;5072278;28;20476;-40
2022/10/19 05:23:30;;;;;;;4.07;2.20;;;8.00;99.90;;;;;;5073242;28;20032;-38
2022/10/19 05:26:03;;;;;;;4.80;2.60;;;7.90;99.90;;;;;;5074192;28;20389;-32
2022/10/19 05:28:30;;;;;;;4.15;2.15;;;8.00;99.90;;;;;;5073499;28;20111;-37
2022/10/19 05:31:03;;;;;;;4.57;2.00;;;7.90;99.90;;;;;;5074176;28;20028;-50
2022/10/19 05:33:28;;;;;;;6.57;2.35;;;7.90;99.90;;;;;;5072934;28;20511;-52
2022/10/19 05:35:54;;;;;;;5.53;2.47;;;7.90;99.90;;;;;;5071300;28;20036;-37
2022/10/19 05:38:19;;;;;;;3.58;2.03;;;7.90;99.90;;;;;;5070882;28;20039;-36
2022/10/19 05:40:46;;;;;;;6.03;2.30;;;7.90;99.90;;;;;;5072684;28;20024;-33
2022/10/19 05:43:12;;;;;;;7.72;2.15;;;7.90;99.90;;;;;;5071161;28;20553;-34
2022/10/19 05:45:37;;;;;;;2.30;1.85;;;7.90;99.90;;;;;;5072895;28;20021;-32
2022/10/19 05:48:03;;;;;;;5.63;1.83;;;7.90;99.90;;;;;;5070820;28;20496;-35
2022/10/19 05:50:29;;;;;;;3.78;1.80;;;7.80;99.90;;;;;;5072856;28;20027;-31
2022/10/19 05:52:54;;;;;;;4.78;1.95;;;7.80;99.90;;;;;;5070914;28;20033;-35
2022/10/19 05:55:20;;;;;;;4.72;1.95;;;7.80;99.90;;;;;;5071846;28;20059;-31
2022/10/19 05:57:45;;;;;;;3.92;2.13;;;7.90;99.90;;;;;;5070800;28;20473;-36
2022/10/19 06:00:11;;;;;;;4.97;2.00;;;7.90;99.90;;;;;;5071947;28;20530;-37
2022/10/19 06:02:37;;;;;;;5.18;1.75;;;7.80;99.90;;;;;;5071843;28;20029;-41
2022/10/19 06:05:03;;;;;;;6.15;1.90;;;7.80;99.90;;;;;;5068098;28;20115;-47
2022/10/19 06:07:28;;;;;;;2.35;2.17;;;7.90;99.90;;;;;;5075548;28;20025;-39
2022/10/19 06:09:54;;;;;;;4.60;1.75;;;7.90;99.90;;;;;;5073970;28;20465;-40
2022/10/19 06:12:20;;;;;;;6.50;2.08;;;7.90;99.90;;;;;;5071342;28;20115;-40
2022/10/19 06:14:45;;;;;;;6.72;2.53;;;7.90;99.90;;;;;;5063584;28;20020;-43
2022/10/19 06:17:11;;;;;;;5.15;2.25;;;7.90;99.90;;;;;;5071477;28;20103;-33
2022/10/19 06:19:36;;;;;;;5.28;1.92;;;7.90;99.90;;;;;;5072214;28;20463;-33
2022/10/19 06:22:02;;;;;;;4.40;2.15;;;7.90;99.90;;;;;;5072243;28;20118;-35
2022/10/19 06:24:28;;;;;;;3.47;1.60;;;8.00;99.90;;;;;;5071366;28;20385;-37
2022/10/19 06:26:53;;;;;;;5.32;1.60;;;8.00;99.90;;;;;;5071396;28;20051;-36
2022/10/19 06:29:19;;;;;;;2.00;1.63;;;8.00;99.90;;;;;;5071375;28;20020;-32
2022/10/19 06:31:45;;;;;;;2.65;1.73;;;8.00;99.90;;;;;;5070048;28;20390;-32
2022/10/19 06:34:11;;;;;;;3.22;1.77;;;8.00;99.90;;;;;;5069896;28;20489;-32
2022/10/19 06:36:36;;;;;;;3.17;1.80;;;8.00;99.90;;;;;;5070069;28;20032;-34
2022/10/19 06:39:03;;;;;;;4.43;1.52;;;8.00;99.90;;;;;;5070892;28;20037;-32
2022/10/19 06:41:33;;;;;;;10.93;2.30;;;8.00;99.90;;;;;;5071711;28;20485;-40
2022/10/19 06:43:59;;;;;;;2.67;1.90;;;8.10;99.90;;;;;;5071669;28;20497;-36
2022/10/19 06:46:27;;;;;;;4.50;2.00;;;8.10;99.90;;;;;;5071027;28;20095;-34
2022/10/19 06:48:57;;;;;;;8.57;2.47;;;8.20;99.90;;;;;;5069267;28;20024;-38
2022/10/19 06:51:24;;;;;;;5.32;2.25;;;8.20;99.90;;;;;;5070141;28;20537;-39
2022/10/19 06:53:51;;;;;;;6.53;2.17;;;8.20;99.90;;;;;;5071802;28;20020;-35
2022/10/19 06:56:19;;;;;;;8.00;2.33;;;8.30;99.90;;;;;;5070772;28;20107;-32
2022/10/19 06:58:45;;;;;;;11.85;2.70;;;8.30;99.90;;;;;;5067607;28;20112;-40
2022/10/19 07:01:12;;;;;;;6.05;1.70;;;8.30;99.90;;;;;;5068116;28;20060;-52
2022/10/19 07:03:39;;;;;;;3.35;1.90;;;8.40;99.90;;;;;;5069477;28;20039;-37
2022/10/19 07:06:07;;;;;;;5.75;2.53;;;8.40;99.90;;;;;;5067717;28;20040;-39
2022/10/19 07:08:33;;;;;;;;;;;8.40;99.90;;;;;;5069163;28;20033;-38
2022/10/19 07:11:01;;;;;;;4.28;2.22;;;8.50;99.90;;;;;;5070922;28;20368;-35
2022/10/19 07:13:31;;;;;;;7.72;2.58;;;8.60;99.90;;;;;;5072819;28;20547;-34
2022/10/19 07:15:59;;;;;;;7.13;2.92;;;8.60;99.90;;;;;;5072304;28;20021;-33
2022/10/19 07:18:25;;;;;;;8.63;2.15;;;8.70;99.90;;;;;;5071615;28;20029;-31
2022/10/19 07:20:59;;;;;;;8.40;2.60;;;8.70;99.90;;;;;;5070367;28;20025;-33
2022/10/19 07:23:27;;;;;;;13.63;2.50;;;8.80;99.90;;;;;;5069612;28;20016;-41
2022/10/19 07:25:54;;;;;;;;;;;8.80;99.90;;;;;;5069954;28;20082;-39
2022/10/19 07:28:21;;;;;;;6.97;2.37;;;8.80;99.90;;;;;;5064500;28;19908;-42
2022/10/19 07:30:47;;;;;;;2.38;2.03;;;8.90;99.90;;;;;;5071235;28;20476;-48
2022/10/19 07:33:12;;;;;;;2.58;1.90;;;9.00;99.90;;;;;;5071613;28;20035;-41
2022/10/19 07:35:38;;;;;;;4.95;2.10;;;9.10;99.90;;;;;;5071600;28;20107;-44
2022/10/19 07:38:03;;;;;;;9.48;2.03;;;9.10;99.90;;;;;;5067029;28;20024;-42
2022/10/19 07:40:29;;;;;;;8.25;2.53;;;9.20;99.90;;;;;;5068736;28;20032;-43
2022/10/19 07:42:55;;;;;;;3.38;2.35;;;9.30;99.90;;;;;;5069315;28;20488;-40
2022/10/19 07:45:20;;;;;;;4.65;2.63;;;9.30;99.90;;;;;;5069473;28;20400;-40
2022/10/19 07:47:46;;;;;;;7.95;2.22;;;9.40;99.90;;;;;;5070236;28;20042;-34
2022/10/19 07:50:11;;;;;;;3.42;1.80;;;9.40;99.90;;;;;;5071300;28;20025;-32
2022/10/19 07:52:37;;;;;;;9.10;2.33;;;9.50;99.90;;;;;;5069531;28;20024;-33
2022/10/19 07:55:03;;;;;;;4.00;2.05;;;9.50;99.90;;;;;;5067784;28;20493;-38
2022/10/19 07:57:28;;;;;;;7.55;2.17;;;9.60;99.90;;;;;;5068339;28;20040;-36
2022/10/19 07:59:54;;;;;;;2.33;1.92;;;9.70;99.90;;;;;;5071784;28;20485;-35
2022/10/19 08:02:19;;;;;;;10.07;2.58;;;9.70;99.90;;;;;;5071979;28;20028;-34
2022/10/19 08:04:45;;;;;;;3.55;2.13;;;9.80;99.90;;;;;;5073949;28;20027;-34
2022/10/19 08:07:11;;;;;;;5.50;2.03;;;9.80;99.90;;;;;;5074805;28;20385;-32
2022/10/19 08:09:37;;;;;;;12.50;2.10;;;9.90;99.90;;;;;;5070329;28;20477;-33
2022/10/19 08:12:04;;;;;;;7.13;2.53;;;10.00;99.90;;;;;;5073524;28;20534;-31
2022/10/19 08:14:30;;;;;;;5.28;2.45;;;10.00;99.90;;;;;;5072421;28;20097;-33
2022/10/19 08:16:55;;;;;;;5.15;2.17;;;10.10;99.90;;;;;;5073581;28;20404;-33
2022/10/19 08:19:21;;;;;;;7.80;2.72;;;10.20;99.90;;;;;;5055592;28;20401;-33
2022/10/19 08:21:47;;;;;;;7.25;1.52;;;10.30;99.90;;;;;;5074735;28;20465;-37
2022/10/19 08:24:15;;;;;;;10.48;1.67;;;10.40;99.90;;;;;;5073697;28;20029;-39
2022/10/19 08:26:41;;;;;;;6.47;1.90;;;10.50;99.90;;;;;;5074744;28;20025;-32
2022/10/19 08:29:11;;;;;;;10.32;2.33;;;10.50;99.90;;;;;;5080899;28;20028;-35
2022/10/19 08:31:37;;;;;;;5.90;2.00;;;10.60;99.90;;;;;;5074008;28;20033;-36
2022/10/19 08:34:03;;;;;;;7.40;1.83;;;10.70;99.90;;;;;;5075183;28;20413;-33
2022/10/19 08:36:31;;;;;;;8.13;1.83;;;10.90;99.90;;;;;;5075239;28;20069;-32
2022/10/19 08:38:58;;;;;;;3.10;1.55;;;10.90;99.90;;;;;;5069631;28;20491;-36
2022/10/19 08:41:38;;;;;;;4.50;1.42;;;11.00;99.90;;;;;;5073376;28;20455;-33
2022/10/19 08:44:22;;;;;;;9.63;2.40;;;11.10;99.90;;;;;;5073822;28;20488;-33
2022/10/19 08:47:03;;;;;;;9.05;2.42;;;11.10;99.90;;;;;;5085920;28;20031;-34
2022/10/19 08:49:30;;;;;;;7.40;2.60;;;11.20;99.90;;;;;;5074691;28;20043;-36
2022/10/19 08:52:04;;;;;;;2.42;1.73;;;11.30;99.90;;;;;;5077184;28;20520;-32
2022/10/19 08:54:42;;;;;;;4.22;1.95;;;11.50;99.90;;;;;;5072786;28;20024;-35
2022/10/19 08:57:14;;;;;;;;;;;11.60;99.90;;;;;;5072283;28;20370;-35
2022/10/19 08:59:48;;;;;;;6.88;1.73;;;11.70;99.90;;;;;;5070036;28;20418;-33
2022/10/19 09:02:40;;;;;;;8.27;1.52;;;11.80;99.90;;;;;;5072765;28;20508;-34
2022/10/19 09:05:22;;;;;;;8.98;1.92;;;11.90;99.90;;;;;;5071462;28;20063;-38
2022/10/19 09:07:52;;;;;;;6.47;1.58;;;12.00;99.90;;;;;;5074445;28;20032;-41
2022/10/19 09:10:25;;;;;;;3.72;1.45;;;12.10;99.90;;;;;;5074379;28;20028;-32
2022/10/19 09:13:06;;;;;;;12.05;1.80;;;12.20;99.90;;;;;;5074376;28;20029;-35
2022/10/19 09:15:43;;;;;;;6.50;1.40;;;12.30;99.90;;;;;;5074642;28;20056;-32
2022/10/19 09:18:30;;;;;;;4.38;1.55;;;12.30;99.90;;;;;;5074505;28;20036;-32
2022/10/19 09:21:08;;;;;;;5.68;1.58;;;12.40;99.90;;;;;;5073333;28;20033;-32
2022/10/19 09:23:39;;;;;;;7.75;1.42;;;12.60;99.90;;;;;;5074459;28;20520;-34
2022/10/19 09:26:13;;;;;;;5.32;2.20;;;12.80;99.90;;;;;;5074274;28;20537;-31
2022/10/19 09:29:03;;;;;;;5.40;1.55;;;12.90;99.90;;;;;;5074326;28;20029;-33
2022/10/19 09:31:35;;;;;;;9.40;1.52;;;13.00;99.90;;;;;;5074232;28;20094;-32
2022/10/19 09:34:44;;;;;;;3.17;1.70;;;13.10;99.90;;;;;;5074125;28;20066;-35
2022/10/19 09:37:11;;;;;;;5.65;1.58;;;13.10;99.90;;;;;;5040028;28;20124;-32
2022/10/19 09:39:37;;;;;;;3.17;1.37;;;13.20;99.90;;;;;;5073924;28;20090;-32
2022/10/19 09:42:21;;;;;;;11.57;2.45;;;13.30;99.90;;;;;;5074237;28;20267;-31
2022/10/19 09:44:49;;;;;;;4.47;2.00;;;13.40;99.90;;;;;;5074286;28;20515;-33
2022/10/19 09:47:51;;;;;;;4.85;1.90;;;13.30;99.90;;;;;;5074247;28;20024;-33
2022/10/19 09:50:22;;;;;;;4.00;1.45;;;13.30;99.90;;;;;;5073692;28;20033;-32
2022/10/19 09:52:50;;;;;;;6.15;2.13;;;13.40;99.90;;;;;;5074110;28;20027;-33
2022/10/19 09:55:47;;;;;;;3.20;1.25;;;13.50;99.90;;;;;;5073749;28;20480;-34
2022/10/19 09:58:13;;;;;;;5.00;1.40;;;13.50;99.90;;;;;;5060445;28;20044;-40
2022/10/19 10:00:50;;;;;;;7.18;2.35;;;13.70;99.90;;;;;;5072497;28;20097;-38
2022/10/19 10:03:22;;;;;;;5.03;1.45;;;13.70;99.90;;;;;;5073577;28;20024;-40
2022/10/19 10:05:48;;;;;;;7.35;1.30;;;13.80;99.90;;;;;;5073702;28;20039;-40
2022/10/19 10:08:20;;;;;;;4.47;1.23;;;13.70;99.90;;;;;;5073855;28;20354;-40
2022/10/19 10:11:12;;;;;;;2.38;1.20;;;13.70;99.90;;;;;;5054741;28;20399;-40
2022/10/19 10:13:46;;;;;;;6.00;1.25;;;13.70;99.90;;;;;;5072926;28;20090;-33
2022/10/19 10:16:15;;;;;;;6.43;1.35;;;13.70;99.90;;;;;;5072339;28;20031;-34
2022/10/19 10:18:56;;;;;;;4.53;1.15;;;13.70;99.90;;;;;;5073488;28;20477;-37
2022/10/19 10:21:46;;;;;;;6.13;1.23;;;13.80;99.90;;;;;;5073284;28;20504;-44
2022/10/19 10:24:12;;;;;;;7.50;2.47;;;13.90;99.90;;;;;;5072060;28;20507;-36
2022/10/19 10:26:44;;;;;;;3.63;1.55;;;14.00;99.90;;;;;;5073213;28;20100;-32
2022/10/19 10:29:23;;;;;;;5.93;1.65;;;14.10;99.90;;;;;;5073266;28;20027;-37
2022/10/19 10:32:00;;;;;;;3.88;1.67;;;14.20;99.90;;;;;;5073355;28;20074;-36
2022/10/19 10:34:39;;;;;;;3.08;1.63;;;14.20;99.90;;;;;;5073281;28;20025;-39
2022/10/19 10:37:11;;;;;;;5.32;1.10;;;14.30;99.90;;;;;;5073032;28;20031;-39
2022/10/19 10:39:41;;;;;;;2.33;1.17;;;14.30;99.90;;;;;;5073099;28;20517;-41
2022/10/19 10:42:15;;;;;;;4.10;1.25;;;14.40;99.90;;;;;;5072963;28;20451;-32
2022/10/19 10:44:47;;;;;;;3.40;1.00;;;14.30;99.90;;;;;;5073227;28;20550;-32
2022/10/19 10:47:15;;;;;;;8.52;1.30;;;14.30;99.90;;;;;;5072922;28;20020;-36
2022/10/19 10:49:42;;;;;;;3.13;1.02;;;14.20;99.90;;;;;;5073152;28;20532;-34
2022/10/19 10:52:16;;;;;;;3.58;1.17;;;14.30;99.90;;;;;;5072843;28;20024;-34
2022/10/19 10:55:02;;;;;;;4.38;1.02;;;14.30;99.90;;;;;;5073152;28;20506;-32
2022/10/19 10:57:34;;;;;;;2.03;0.93;;;14.40;99.90;;;;;;5073078;28;20468;-32
2022/10/19 11:00:12;;;;;;;9.30;1.38;;;14.70;99.90;;;;;;5072592;28;20508;-34
2022/10/19 11:02:45;;;;;;;5.35;1.15;;;14.60;99.90;;;;;;5072754;28;20704;-36
2022/10/19 11:05:21;;;;;;;1.75;0.82;;;14.50;99.90;;;;;;5072750;28;20495;-35
2022/10/19 11:07:53;;;;;;;5.55;0.73;;;14.70;99.90;;;;;;5073001;28;20039;-35
2022/10/19 11:10:27;;;;;;;6.90;1.35;;;14.80;99.90;;;;;;5072690;28;20476;-38
2022/10/19 11:13:19;;;;;;;3.35;0.93;;;14.60;99.90;;;;;;5072607;28;20025;-37
2022/10/19 11:16:01;;;;;;;5.78;1.08;;;14.60;99.90;;;;;;5072621;28;20032;-32
2022/10/19 11:18:43;;;;;;;1.55;0.60;;;14.70;99.90;;;;;;5071457;28;20043;-40
2022/10/19 11:21:34;;;;;;;3.70;0.65;;;14.80;99.90;;;;;;5072643;28;20033;-40
2022/10/19 11:24:05;;;;;;;6.97;1.05;;;14.90;99.90;;;;;;5069559;28;20044;-40
2022/10/19 11:27:04;;;;;;;2.55;0.65;;;15.00;99.90;;;;;;5072674;28;20480;-39
2022/10/19 11:29:38;;;;;;;2.33;0.55;;;15.20;99.90;;;;;;5072457;28;20025;-35
2022/10/19 11:32:13;;;;;;;2.40;0.73;;;15.30;99.90;;;;;;5072621;28;20028;-41
2022/10/19 11:34:59;;;;;;;7.63;1.77;;;15.40;99.90;;;;;;5071285;28;20036;-41
2022/10/19 11:37:31;;;;;;;3.00;0.70;;;15.40;99.90;;;;;;5076492;28;20036;-53
2022/10/19 11:40:11;;;;;;;4.50;0.77;;;15.40;99.90;;;;;;5076333;28;20489;-45
2022/10/19 11:43:19;;;;;;;3.08;0.52;;;15.30;99.90;;;;;;5076253;28;20020;-35
2022/10/19 11:46:03;;;;;;;8.45;0.90;;;15.50;99.90;;;;;;5014355;28;20033;-34
2022/10/19 11:48:47;;;;;;;1.52;0.73;;;15.40;99.90;;;;;;5071242;28;20044;-32
2022/10/19 11:51:41;;;;;;;2.97;0.68;;;15.40;99.90;;;;;;5076389;28;20535;-34
2022/10/19 11:54:48;;;;;;;1.63;0.50;;;15.40;99.90;;;;;;5075528;28;20136;-41
2022/10/19 11:57:20;;;;;;;4.97;0.50;;;15.50;99.90;;;;;;5076239;28;20021;-32
2022/10/19 12:00:13;;;;;;;5.97;1.10;;;15.60;99.90;;;;;;5075652;28;20040;-30
2022/10/19 12:02:50;;;;;;;2.17;0.70;;;15.70;99.90;;;;;;5075900;28;20028;-29
2022/10/19 12:05:37;;;;;;;4.10;0.40;;;15.90;99.90;;;;;;5075948;28;20029;-31
2022/10/19 12:08:31;;;;;;;5.73;1.33;;;16.00;99.90;;;;;;5075892;28;20064;-32
2022/10/19 12:11:16;;;;;;;2.42;0.80;;;16.10;99.90;;;;;;5075802;28;20029;-49
2022/10/19 12:14:03;;;;;;;4.78;0.95;;;16.10;99.90;;;;;;5073920;28;20051;-30
2022/10/19 12:16:44;;;;;;;2.07;0.63;;;16.10;99.90;;;;;;5075609;28;20533;-34
2022/10/19 12:19:37;;;;;;;3.13;0.82;;;16.20;99.90;;;;;;5075864;28;20480;-35
2022/10/19 12:22:05;;;;;;;2.83;0.65;;;16.30;99.90;;;;;;5075618;28;20485;-32
2022/10/19 12:24:33;;;;;;;3.35;1.00;;;16.20;99.90;;;;;;5075566;28;20288;-35
2022/10/19 12:26:59;;;;;;;4.72;0.93;;;16.20;99.90;;;;;;5075488;28;20086;-32
2022/10/19 12:29:29;;;;;;;2.90;1.15;;;16.20;99.90;;;;;;5075696;28;20041;-31
2022/10/19 12:31:56;;;;;;;2.13;1.58;;;16.20;99.90;;;;;;5075470;28;20166;-34
2022/10/19 12:34:44;;;;;;;8.23;0.83;;;16.20;99.90;;;;;;5075354;28;20392;-32
2022/10/19 12:37:29;;;;;;;;;;;16.10;99.90;;;;;;5075756;28;20305;-33
2022/10/19 12:40:04;;;;;;;4.35;0.93;;;16.10;99.90;;;;;;5075545;28;20007;-29
2022/10/19 12:42:50;;;;;;;2.05;0.82;;;16.00;99.90;;;;;;5075310;28;20032;-30
2022/10/19 12:45:17;;;;;;;0.77;0.70;;;16.10;99.90;;;;;;5075163;28;20029;-30
2022/10/19 12:48:11;;;;;;;8.00;0.88;;;16.20;99.90;;;;;;5074476;28;20020;-33
2022/10/19 12:50:48;;;;;;;4.00;1.08;;;16.30;99.90;;;;;;5075036;28;20538;-30
2022/10/19 12:53:36;;;;;;;6.97;1.20;;;16.30;99.90;;;;;;5075149;28;20029;-31
2022/10/19 12:56:05;;;;;;;5.93;0.98;;;16.30;99.90;;;;;;5075264;28;20361;-34
2022/10/19 12:58:42;;;;;;;1.38;0.90;;;16.40;99.90;;;;;;5075653;28;20126;-39
2022/10/19 13:01:34;;;;;;;10.63;1.88;;;16.40;99.90;;;;;;5078412;28;20112;-37
2022/10/19 13:04:50;;;;;;;2.10;1.23;;;16.30;99.90;;;;;;5080018;28;20024;-46
2022/10/19 13:07:17;;;;;;;5.75;0.95;;;16.40;99.90;;;;;;5079289;28;20032;-39
2022/10/19 13:09:46;;;;;;;4.70;0.90;;;16.30;99.90;;;;;;5078798;28;20430;-32
2022/10/19 13:12:14;;;;;;;6.43;0.90;;;16.40;99.90;;;;;;5074636;28;20032;-33
2022/10/19 13:14:49;;;;;;;6.03;1.00;;;16.50;99.90;;;;;;5078307;28;20127;-30